sensor_id;sensor_type;location;lat;lon;timestamp;pressure;altitude;pressure_sealevel;temperature;humidity
50368;BME280;36281;34.132;-118.018;2023-02-01T00:00:18;100190.91;;;18.98;14.13
50368;BME280;36281;34.132;-118.018;2023-02-01T00:02:47;100195.75;;;18.96;15.57
50368;BME280;36281;34.132;-118.018;2023-02-01T00:05:15;100202.16;;;18.90;15.13
50368;BME280;36281;34.132;-118.018;2023-02-01T00:07:46;100212.00;;;18.84;14.68
50368;BME280;36281;34.132;-118.018;2023-02-01T00:10:16;100213.63;;;18.80;14.93
50368;BME280;36281;34.132;-118.018;2023-02-01T00:12:45;100213.59;;;18.75;15.34
50368;BME280;36281;34.132;-118.018;2023-02-01T00:15:13;100219.16;;;18.68;15.43
50368;BME280;36281;34.132;-118.018;2023-02-01T00:17:41;100223.38;;;18.64;17.52
50368;BME280;36281;34.132;-118.018;2023-02-01T00:20:10;100221.97;;;18.56;17.05
50368;BME280;36281;34.132;-118.018;2023-02-01T00:22:38;100217.66;;;18.50;18.12
50368;BME280;36281;34.132;-118.018;2023-02-01T00:25:07;100215.16;;;18.44;16.45
50368;BME280;36281;34.132;-118.018;2023-02-01T00:27:37;100216.47;;;18.41;15.87
50368;BME280;36281;34.132;-118.018;2023-02-01T00:30:06;100223.69;;;18.36;16.48
50368;BME280;36281;34.132;-118.018;2023-02-01T00:32:34;100227.94;;;18.31;17.45
50368;BME280;36281;34.132;-118.018;2023-02-01T00:35:03;100238.03;;;18.24;18.26
50368;BME280;36281;34.132;-118.018;2023-02-01T00:37:31;100236.38;;;18.18;19.37
50368;BME280;36281;34.132;-118.018;2023-02-01T00:39:59;100245.38;;;18.07;20.26
50368;BME280;36281;34.132;-118.018;2023-02-01T00:42:28;100240.72;;;17.97;19.27
50368;BME280;36281;34.132;-118.018;2023-02-01T00:44:58;100241.72;;;17.91;18.52
50368;BME280;36281;34.132;-118.018;2023-02-01T00:47:26;100238.41;;;17.84;18.43
50368;BME280;36281;34.132;-118.018;2023-02-01T00:49:54;100238.59;;;17.77;19.56
50368;BME280;36281;34.132;-118.018;2023-02-01T00:52:23;100240.06;;;17.68;20.31
50368;BME280;36281;34.132;-118.018;2023-02-01T00:54:51;100241.81;;;17.57;21.97
50368;BME280;36281;34.132;-118.018;2023-02-01T00:57:19;100249.44;;;17.49;22.97
50368;BME280;36281;34.132;-118.018;2023-02-01T00:59:47;100255.47;;;17.39;24.91
50368;BME280;36281;34.132;-118.018;2023-02-01T01:02:17;100253.16;;;17.26;24.91
50368;BME280;36281;34.132;-118.018;2023-02-01T01:04:45;100265.28;;;17.12;24.72
50368;BME280;36281;34.132;-118.018;2023-02-01T01:07:14;100261.56;;;16.96;25.50
50368;BME280;36281;34.132;-118.018;2023-02-01T01:09:42;100271.75;;;16.82;26.99
50368;BME280;36281;34.132;-118.018;2023-02-01T01:12:10;100272.03;;;16.69;26.79
50368;BME280;36281;34.132;-118.018;2023-02-01T01:14:38;100273.19;;;16.56;26.37
50368;BME280;36281;34.132;-118.018;2023-02-01T01:17:07;100279.63;;;16.43;27.81
50368;BME280;36281;34.132;-118.018;2023-02-01T01:19:37;100276.19;;;16.31;27.33
50368;BME280;36281;34.132;-118.018;2023-02-01T01:22:05;100286.81;;;16.14;27.19
50368;BME280;36281;34.132;-118.018;2023-02-01T01:24:33;100281.28;;;16.04;25.96
50368;BME280;36281;34.132;-118.018;2023-02-01T01:27:01;100284.47;;;15.89;28.16
50368;BME280;36281;34.132;-118.018;2023-02-01T01:29:30;100283.59;;;15.72;28.68
50368;BME280;36281;34.132;-118.018;2023-02-01T01:31:58;100289.69;;;15.61;27.95
50368;BME280;36281;34.132;-118.018;2023-02-01T01:34:27;100288.09;;;15.48;28.21
50368;BME280;36281;34.132;-118.018;2023-02-01T01:36:56;100290.19;;;15.34;27.35
50368;BME280;36281;34.132;-118.018;2023-02-01T01:39:25;100292.28;;;15.20;26.06
50368;BME280;36281;34.132;-118.018;2023-02-01T01:41:53;100291.81;;;15.12;26.01
50368;BME280;36281;34.132;-118.018;2023-02-01T01:47:08;100291.22;;;14.98;26.43
50368;BME280;36281;34.132;-118.018;2023-02-01T01:49:36;100287.03;;;14.90;27.83
50368;BME280;36281;34.132;-118.018;2023-02-01T01:52:07;100288.88;;;14.78;29.00
50368;BME280;36281;34.132;-118.018;2023-02-01T01:54:37;100292.09;;;14.68;27.76
50368;BME280;36281;34.132;-118.018;2023-02-01T01:57:08;100291.38;;;14.61;26.68
50368;BME280;36281;34.132;-118.018;2023-02-01T01:59:37;100281.25;;;14.52;28.60
50368;BME280;36281;34.132;-118.018;2023-02-01T02:02:07;100281.19;;;14.40;29.98
50368;BME280;36281;34.132;-118.018;2023-02-01T02:04:35;100283.34;;;14.31;29.59
50368;BME280;36281;34.132;-118.018;2023-02-01T02:07:04;100283.06;;;14.21;30.18
50368;BME280;36281;34.132;-118.018;2023-02-01T02:09:34;100288.72;;;14.13;29.66
50368;BME280;36281;34.132;-118.018;2023-02-01T02:12:04;100292.94;;;14.02;30.56
50368;BME280;36281;34.132;-118.018;2023-02-01T02:14:32;100295.31;;;13.92;30.04
50368;BME280;36281;34.132;-118.018;2023-02-01T02:17:14;100288.88;;;13.81;30.75
50368;BME280;36281;34.132;-118.018;2023-02-01T02:19:55;100290.44;;;13.70;30.73
50368;BME280;36281;34.132;-118.018;2023-02-01T02:22:37;100305.06;;;13.61;30.66
50368;BME280;36281;34.132;-118.018;2023-02-01T02:28:02;100317.19;;;13.39;30.47
50368;BME280;36281;34.132;-118.018;2023-02-01T02:33:39;100318.13;;;13.19;30.72
50368;BME280;36281;34.132;-118.018;2023-02-01T02:36:10;100320.25;;;13.11;31.35
50368;BME280;36281;34.132;-118.018;2023-02-01T02:38:43;100331.75;;;13.05;30.83
50368;BME280;36281;34.132;-118.018;2023-02-01T02:41:15;100330.16;;;12.97;31.57
50368;BME280;36281;34.132;-118.018;2023-02-01T02:44:07;100339.88;;;12.85;30.44
50368;BME280;36281;34.132;-118.018;2023-02-01T02:46:57;100346.47;;;12.76;30.82
50368;BME280;36281;34.132;-118.018;2023-02-01T02:49:49;100340.19;;;12.70;31.88
50368;BME280;36281;34.132;-118.018;2023-02-01T02:52:40;100334.06;;;12.63;32.04
50368;BME280;36281;34.132;-118.018;2023-02-01T02:55:30;100337.00;;;12.55;32.69
50368;BME280;36281;34.132;-118.018;2023-02-01T02:57:59;100341.97;;;12.45;33.00
50368;BME280;36281;34.132;-118.018;2023-02-01T03:00:46;100359.97;;;12.36;33.02
50368;BME280;36281;34.132;-118.018;2023-02-01T03:03:39;100356.31;;;12.30;32.73
50368;BME280;36281;34.132;-118.018;2023-02-01T03:06:27;100365.72;;;12.26;33.92
50368;BME280;36281;34.132;-118.018;2023-02-01T03:08:56;100368.00;;;12.16;33.97
50368;BME280;36281;34.132;-118.018;2023-02-01T03:11:25;100358.22;;;12.10;34.44
50368;BME280;36281;34.132;-118.018;2023-02-01T03:14:16;100363.75;;;12.02;34.98
50368;BME280;36281;34.132;-118.018;2023-02-01T03:16:47;100369.69;;;11.97;35.91
50368;BME280;36281;34.132;-118.018;2023-02-01T03:19:19;100361.75;;;11.90;36.42
50368;BME280;36281;34.132;-118.018;2023-02-01T03:21:51;100366.25;;;11.83;36.52
50368;BME280;36281;34.132;-118.018;2023-02-01T03:24:24;100381.34;;;11.76;36.41
50368;BME280;36281;34.132;-118.018;2023-02-01T03:27:01;100383.81;;;11.71;37.00
50368;BME280;36281;34.132;-118.018;2023-02-01T03:29:33;100389.94;;;11.65;36.91
50368;BME280;36281;34.132;-118.018;2023-02-01T03:32:04;100397.88;;;11.58;37.14
50368;BME280;36281;34.132;-118.018;2023-02-01T03:34:33;100396.47;;;11.56;37.52
50368;BME280;36281;34.132;-118.018;2023-02-01T03:37:04;100397.91;;;11.52;37.30
50368;BME280;36281;34.132;-118.018;2023-02-01T03:39:34;100396.69;;;11.48;37.84
50368;BME280;36281;34.132;-118.018;2023-02-01T03:42:04;100399.13;;;11.43;38.65
50368;BME280;36281;34.132;-118.018;2023-02-01T03:44:34;100400.53;;;11.38;39.14
50368;BME280;36281;34.132;-118.018;2023-02-01T03:47:06;100408.28;;;11.33;39.12
50368;BME280;36281;34.132;-118.018;2023-02-01T03:49:37;100415.22;;;11.28;38.94
50368;BME280;36281;34.132;-118.018;2023-02-01T03:52:11;100417.66;;;11.23;39.05
50368;BME280;36281;34.132;-118.018;2023-02-01T03:54:41;100422.16;;;11.16;39.88
50368;BME280;36281;34.132;-118.018;2023-02-01T03:57:11;100428.06;;;11.11;39.45
50368;BME280;36281;34.132;-118.018;2023-02-01T03:59:41;100432.13;;;11.07;39.96
50368;BME280;36281;34.132;-118.018;2023-02-01T04:02:09;100435.38;;;11.02;39.46
50368;BME280;36281;34.132;-118.018;2023-02-01T04:04:38;100443.13;;;10.97;38.87
50368;BME280;36281;34.132;-118.018;2023-02-01T04:07:06;100449.66;;;10.95;39.57
50368;BME280;36281;34.132;-118.018;2023-02-01T04:09:36;100446.16;;;10.87;40.25
50368;BME280;36281;34.132;-118.018;2023-02-01T04:12:04;100441.66;;;10.81;40.24
50368;BME280;36281;34.132;-118.018;2023-02-01T04:14:32;100449.75;;;10.73;39.98
50368;BME280;36281;34.132;-118.018;2023-02-01T04:17:01;100447.91;;;10.67;39.57
50368;BME280;36281;34.132;-118.018;2023-02-01T04:19:29;100450.13;;;10.64;40.61
50368;BME280;36281;34.132;-118.018;2023-02-01T04:21:57;100453.38;;;10.59;40.90
50368;BME280;36281;34.132;-118.018;2023-02-01T04:24:25;100452.16;;;10.55;41.51
50368;BME280;36281;34.132;-118.018;2023-02-01T04:26:55;100451.94;;;10.50;41.72
50368;BME280;36281;34.132;-118.018;2023-02-01T04:29:24;100460.47;;;10.45;42.12
50368;BME280;36281;34.132;-118.018;2023-02-01T04:31:52;100454.72;;;10.42;41.97
50368;BME280;36281;34.132;-118.018;2023-02-01T04:34:20;100454.72;;;10.35;42.64
50368;BME280;36281;34.132;-118.018;2023-02-01T04:36:50;100459.56;;;10.31;43.07
50368;BME280;36281;34.132;-118.018;2023-02-01T04:39:18;100466.25;;;10.27;43.77
50368;BME280;36281;34.132;-118.018;2023-02-01T04:41:46;100468.19;;;10.19;43.83
50368;BME280;36281;34.132;-118.018;2023-02-01T04:44:17;100466.97;;;10.15;43.95
50368;BME280;36281;34.132;-118.018;2023-02-01T04:46:45;100468.16;;;10.12;44.17
50368;BME280;36281;34.132;-118.018;2023-02-01T04:49:14;100467.94;;;10.07;45.47
50368;BME280;36281;34.132;-118.018;2023-02-01T04:51:42;100472.16;;;10.01;45.59
50368;BME280;36281;34.132;-118.018;2023-02-01T04:54:11;100475.97;;;9.92;45.53
50368;BME280;36281;34.132;-118.018;2023-02-01T04:56:39;100474.28;;;9.84;44.75
50368;BME280;36281;34.132;-118.018;2023-02-01T04:59:07;100482.59;;;9.81;45.08
50368;BME280;36281;34.132;-118.018;2023-02-01T05:01:39;100478.09;;;9.75;45.74
50368;BME280;36281;34.132;-118.018;2023-02-01T05:04:07;100485.13;;;9.68;46.34
50368;BME280;36281;34.132;-118.018;2023-02-01T05:06:35;100487.53;;;9.63;46.08
50368;BME280;36281;34.132;-118.018;2023-02-01T05:09:03;100482.81;;;9.58;46.24
50368;BME280;36281;34.132;-118.018;2023-02-01T05:11:32;100487.69;;;9.55;46.14
50368;BME280;36281;34.132;-118.018;2023-02-01T05:14:18;100496.19;;;9.50;46.34
50368;BME280;36281;34.132;-118.018;2023-02-01T05:16:48;100498.38;;;9.47;46.80
50368;BME280;36281;34.132;-118.018;2023-02-01T05:19:16;100492.84;;;9.42;46.17
50368;BME280;36281;34.132;-118.018;2023-02-01T05:21:44;100501.53;;;9.36;46.53
50368;BME280;36281;34.132;-118.018;2023-02-01T05:24:13;100506.56;;;9.30;46.55
50368;BME280;36281;34.132;-118.018;2023-02-01T05:26:42;100500.00;;;9.26;47.19
50368;BME280;36281;34.132;-118.018;2023-02-01T05:29:10;100497.09;;;9.21;47.38
50368;BME280;36281;34.132;-118.018;2023-02-01T05:31:39;100495.84;;;9.17;47.77
50368;BME280;36281;34.132;-118.018;2023-02-01T05:34:09;100495.38;;;9.14;47.60
50368;BME280;36281;34.132;-118.018;2023-02-01T05:36:37;100490.03;;;9.07;48.29
50368;BME280;36281;34.132;-118.018;2023-02-01T05:39:05;100499.69;;;9.00;48.31
50368;BME280;36281;34.132;-118.018;2023-02-01T05:41:34;100507.00;;;8.98;48.46
50368;BME280;36281;34.132;-118.018;2023-02-01T05:44:02;100497.63;;;8.95;48.32
50368;BME280;36281;34.132;-118.018;2023-02-01T05:46:30;100499.16;;;8.90;48.75
50368;BME280;36281;34.132;-118.018;2023-02-01T05:48:59;100496.25;;;8.85;48.33
50368;BME280;36281;34.132;-118.018;2023-02-01T05:51:29;100499.44;;;8.80;48.28
50368;BME280;36281;34.132;-118.018;2023-02-01T05:53:57;100494.75;;;8.75;48.93
50368;BME280;36281;34.132;-118.018;2023-02-01T05:56:25;100509.47;;;8.70;49.28
50368;BME280;36281;34.132;-118.018;2023-02-01T05:58:53;100521.78;;;8.63;49.44
50368;BME280;36281;34.132;-118.018;2023-02-01T06:01:22;100515.44;;;8.57;49.88
50368;BME280;36281;34.132;-118.018;2023-02-01T06:03:50;100507.03;;;8.53;50.23
50368;BME280;36281;34.132;-118.018;2023-02-01T06:06:18;100503.13;;;8.49;49.53
50368;BME280;36281;34.132;-118.018;2023-02-01T06:08:48;100497.56;;;8.44;49.36
50368;BME280;36281;34.132;-118.018;2023-02-01T06:11:17;100507.84;;;8.39;50.04
50368;BME280;36281;34.132;-118.018;2023-02-01T06:13:58;100510.69;;;8.38;50.20
50368;BME280;36281;34.132;-118.018;2023-02-01T06:16:26;100518.28;;;8.33;50.84
50368;BME280;36281;34.132;-118.018;2023-02-01T06:18:54;100511.72;;;8.28;51.33
50368;BME280;36281;34.132;-118.018;2023-02-01T06:21:23;100517.38;;;8.25;51.25
50368;BME280;36281;34.132;-118.018;2023-02-01T06:23:53;100511.66;;;8.22;51.45
50368;BME280;36281;34.132;-118.018;2023-02-01T06:26:21;100505.28;;;8.16;51.09
50368;BME280;36281;34.132;-118.018;2023-02-01T06:28:50;100523.47;;;8.11;51.13
50368;BME280;36281;34.132;-118.018;2023-02-01T06:31:18;100522.66;;;8.11;51.30
50368;BME280;36281;34.132;-118.018;2023-02-01T06:33:46;100516.72;;;8.09;51.57
50368;BME280;36281;34.132;-118.018;2023-02-01T06:36:16;100514.44;;;8.06;51.10
50368;BME280;36281;34.132;-118.018;2023-02-01T06:38:46;100518.59;;;8.00;51.12
50368;BME280;36281;34.132;-118.018;2023-02-01T06:41:16;100524.25;;;7.97;52.06
50368;BME280;36281;34.132;-118.018;2023-02-01T06:43:44;100524.59;;;7.94;52.54
50368;BME280;36281;34.132;-118.018;2023-02-01T06:46:14;100538.50;;;7.88;52.85
50368;BME280;36281;34.132;-118.018;2023-02-01T06:48:42;100542.28;;;7.85;51.98
50368;BME280;36281;34.132;-118.018;2023-02-01T06:51:20;100541.84;;;7.82;51.91
50368;BME280;36281;34.132;-118.018;2023-02-01T06:53:49;100546.31;;;7.81;52.08
50368;BME280;36281;34.132;-118.018;2023-02-01T06:56:19;100529.34;;;7.75;52.43
50368;BME280;36281;34.132;-118.018;2023-02-01T06:58:49;100524.34;;;7.66;53.30
50368;BME280;36281;34.132;-118.018;2023-02-01T07:01:17;100527.31;;;7.63;53.39
50368;BME280;36281;34.132;-118.018;2023-02-01T07:03:47;100520.94;;;7.57;52.90
50368;BME280;36281;34.132;-118.018;2023-02-01T07:06:15;100513.09;;;7.49;52.96
50368;BME280;36281;34.132;-118.018;2023-02-01T07:08:43;100514.78;;;7.42;52.74
50368;BME280;36281;34.132;-118.018;2023-02-01T07:11:12;100510.50;;;7.41;53.00
50368;BME280;36281;34.132;-118.018;2023-02-01T07:13:42;100516.75;;;7.40;53.81
50368;BME280;36281;34.132;-118.018;2023-02-01T07:16:11;100521.41;;;7.38;52.94
50368;BME280;36281;34.132;-118.018;2023-02-01T07:18:40;100521.09;;;7.33;52.56
50368;BME280;36281;34.132;-118.018;2023-02-01T07:21:08;100515.00;;;7.32;52.93
50368;BME280;36281;34.132;-118.018;2023-02-01T07:23:36;100515.34;;;7.29;52.60
50368;BME280;36281;34.132;-118.018;2023-02-01T07:26:05;100521.00;;;7.26;52.24
50368;BME280;36281;34.132;-118.018;2023-02-01T07:28:34;100512.09;;;7.27;52.47
50368;BME280;36281;34.132;-118.018;2023-02-01T07:31:05;100522.78;;;7.25;52.70
50368;BME280;36281;34.132;-118.018;2023-02-01T07:33:33;100522.16;;;7.23;53.11
50368;BME280;36281;34.132;-118.018;2023-02-01T07:36:03;100518.03;;;7.21;53.27
50368;BME280;36281;34.132;-118.018;2023-02-01T07:38:31;100515.56;;;7.19;53.56
50368;BME280;36281;34.132;-118.018;2023-02-01T07:41:00;100506.38;;;7.15;52.79
50368;BME280;36281;34.132;-118.018;2023-02-01T07:43:29;100508.19;;;7.15;53.15
50368;BME280;36281;34.132;-118.018;2023-02-01T07:45:57;100510.19;;;7.13;52.92
50368;BME280;36281;34.132;-118.018;2023-02-01T07:48:27;100508.06;;;7.08;53.44
50368;BME280;36281;34.132;-118.018;2023-02-01T07:50:59;100508.41;;;7.05;53.56
50368;BME280;36281;34.132;-118.018;2023-02-01T07:53:28;100511.56;;;7.00;55.08
50368;BME280;36281;34.132;-118.018;2023-02-01T07:55:57;100513.06;;;6.95;54.75
50368;BME280;36281;34.132;-118.018;2023-02-01T07:58:26;100509.81;;;6.93;54.31
50368;BME280;36281;34.132;-118.018;2023-02-01T08:00:55;100514.75;;;6.88;54.44
50368;BME280;36281;34.132;-118.018;2023-02-01T08:03:43;100514.47;;;6.83;54.32
50368;BME280;36281;34.132;-118.018;2023-02-01T08:06:11;100509.88;;;6.77;54.40
50368;BME280;36281;34.132;-118.018;2023-02-01T08:08:40;100505.75;;;6.74;54.79
50368;BME280;36281;34.132;-118.018;2023-02-01T08:11:08;100516.81;;;6.69;55.60
50368;BME280;36281;34.132;-118.018;2023-02-01T08:13:36;100505.78;;;6.66;55.75
50368;BME280;36281;34.132;-118.018;2023-02-01T08:16:05;100507.78;;;6.64;55.65
50368;BME280;36281;34.132;-118.018;2023-02-01T08:18:34;100508.63;;;6.56;55.18
50368;BME280;36281;34.132;-118.018;2023-02-01T08:21:05;100510.78;;;6.53;55.86
50368;BME280;36281;34.132;-118.018;2023-02-01T08:23:34;100516.19;;;6.51;56.15
50368;BME280;36281;34.132;-118.018;2023-02-01T08:26:08;100521.00;;;6.47;56.72
50368;BME280;36281;34.132;-118.018;2023-02-01T08:28:38;100508.34;;;6.43;56.41
50368;BME280;36281;34.132;-118.018;2023-02-01T08:31:07;100514.75;;;6.40;56.51
50368;BME280;36281;34.132;-118.018;2023-02-01T08:33:35;100519.19;;;6.40;56.88
50368;BME280;36281;34.132;-118.018;2023-02-01T08:36:09;100519.38;;;6.38;56.61
50368;BME280;36281;34.132;-118.018;2023-02-01T08:38:38;100526.44;;;6.30;56.65
50368;BME280;36281;34.132;-118.018;2023-02-01T08:41:07;100525.00;;;6.27;56.17
50368;BME280;36281;34.132;-118.018;2023-02-01T08:43:35;100519.25;;;6.24;56.82
50368;BME280;36281;34.132;-118.018;2023-02-01T08:46:04;100519.56;;;6.20;56.18
50368;BME280;36281;34.132;-118.018;2023-02-01T08:48:33;100524.81;;;6.20;56.71
50368;BME280;36281;34.132;-118.018;2023-02-01T08:51:02;100515.47;;;6.18;56.87
50368;BME280;36281;34.132;-118.018;2023-02-01T08:53:32;100522.03;;;6.14;56.19
50368;BME280;36281;34.132;-118.018;2023-02-01T08:56:01;100512.66;;;6.11;56.04
50368;BME280;36281;34.132;-118.018;2023-02-01T08:58:29;100507.41;;;6.11;56.10
50368;BME280;36281;34.132;-118.018;2023-02-01T09:01:02;100511.03;;;6.10;55.92
50368;BME280;36281;34.132;-118.018;2023-02-01T09:03:30;100515.31;;;6.11;56.01
50368;BME280;36281;34.132;-118.018;2023-02-01T09:06:01;100506.94;;;6.08;56.58
50368;BME280;36281;34.132;-118.018;2023-02-01T09:08:29;100501.81;;;6.06;56.38
50368;BME280;36281;34.132;-118.018;2023-02-01T09:11:00;100508.91;;;6.06;55.76
50368;BME280;36281;34.132;-118.018;2023-02-01T09:13:29;100499.88;;;6.00;55.19
50368;BME280;36281;34.132;-118.018;2023-02-01T09:15:57;100501.84;;;5.98;55.89
50368;BME280;36281;34.132;-118.018;2023-02-01T09:18:27;100496.91;;;5.95;56.19
50368;BME280;36281;34.132;-118.018;2023-02-01T09:20:55;100501.53;;;5.93;55.44
50368;BME280;36281;34.132;-118.018;2023-02-01T09:23:24;100498.91;;;5.93;55.80
50368;BME280;36281;34.132;-118.018;2023-02-01T09:25:52;100504.44;;;5.90;54.91
50368;BME280;36281;34.132;-118.018;2023-02-01T09:28:22;100509.06;;;5.88;54.75
50368;BME280;36281;34.132;-118.018;2023-02-01T09:30:54;100507.44;;;5.87;55.02
50368;BME280;36281;34.132;-118.018;2023-02-01T09:33:23;100509.22;;;5.86;55.19
50368;BME280;36281;34.132;-118.018;2023-02-01T09:35:57;100508.56;;;5.84;55.32
50368;BME280;36281;34.132;-118.018;2023-02-01T09:38:25;100500.19;;;5.81;54.45
50368;BME280;36281;34.132;-118.018;2023-02-01T09:40:55;100504.78;;;5.79;54.73
50368;BME280;36281;34.132;-118.018;2023-02-01T09:43:29;100525.50;;;5.74;55.89
50368;BME280;36281;34.132;-118.018;2023-02-01T09:46:03;100537.31;;;5.69;55.55
50368;BME280;36281;34.132;-118.018;2023-02-01T09:48:38;100525.47;;;5.65;55.27
50368;BME280;36281;34.132;-118.018;2023-02-01T09:51:11;100518.91;;;5.61;55.17
50368;BME280;36281;34.132;-118.018;2023-02-01T09:53:41;100531.41;;;5.59;56.07
50368;BME280;36281;34.132;-118.018;2023-02-01T09:56:12;100525.63;;;5.56;56.35
50368;BME280;36281;34.132;-118.018;2023-02-01T09:58:44;100533.38;;;5.57;57.00
50368;BME280;36281;34.132;-118.018;2023-02-01T10:01:16;100534.19;;;5.50;56.93
50368;BME280;36281;34.132;-118.018;2023-02-01T10:03:46;100527.59;;;5.45;57.17
50368;BME280;36281;34.132;-118.018;2023-02-01T10:06:24;100526.13;;;5.43;57.91
50368;BME280;36281;34.132;-118.018;2023-02-01T10:11:49;100527.88;;;5.26;57.78
50368;BME280;36281;34.132;-118.018;2023-02-01T10:14:31;100525.75;;;5.22;57.75
50368;BME280;36281;34.132;-118.018;2023-02-01T10:17:05;100522.63;;;5.18;57.54
50368;BME280;36281;34.132;-118.018;2023-02-01T10:19:42;100518.84;;;5.12;58.08
50368;BME280;36281;34.132;-118.018;2023-02-01T10:22:14;100519.81;;;5.11;58.65
50368;BME280;36281;34.132;-118.018;2023-02-01T10:24:49;100520.09;;;5.00;57.18
50368;BME280;36281;34.132;-118.018;2023-02-01T10:27:25;100515.16;;;4.97;58.23
50368;BME280;36281;34.132;-118.018;2023-02-01T10:30:01;100511.06;;;4.95;58.54
50368;BME280;36281;34.132;-118.018;2023-02-01T10:32:32;100505.66;;;4.96;58.69
50368;BME280;36281;34.132;-118.018;2023-02-01T10:35:04;100509.09;;;4.97;58.80
50368;BME280;36281;34.132;-118.018;2023-02-01T10:37:37;100508.28;;;4.96;57.77
50368;BME280;36281;34.132;-118.018;2023-02-01T10:40:10;100510.91;;;4.96;57.72
50368;BME280;36281;34.132;-118.018;2023-02-01T10:42:40;100503.03;;;4.96;57.57
50368;BME280;36281;34.132;-118.018;2023-02-01T10:45:13;100486.78;;;4.92;58.22
50368;BME280;36281;34.132;-118.018;2023-02-01T10:47:42;100478.25;;;4.90;57.77
50368;BME280;36281;34.132;-118.018;2023-02-01T10:50:14;100485.28;;;4.90;57.96
50368;BME280;36281;34.132;-118.018;2023-02-01T10:52:44;100476.09;;;4.86;57.97
50368;BME280;36281;34.132;-118.018;2023-02-01T10:55:26;100467.75;;;4.82;57.64
50368;BME280;36281;34.132;-118.018;2023-02-01T10:57:56;100475.91;;;4.79;58.02
50368;BME280;36281;34.132;-118.018;2023-02-01T11:00:26;100467.38;;;4.77;58.10
50368;BME280;36281;34.132;-118.018;2023-02-01T11:02:55;100470.50;;;4.73;57.50
50368;BME280;36281;34.132;-118.018;2023-02-01T11:05:23;100471.31;;;4.73;57.81
50368;BME280;36281;34.132;-118.018;2023-02-01T11:07:53;100483.63;;;4.73;57.65
50368;BME280;36281;34.132;-118.018;2023-02-01T11:10:36;100494.72;;;4.66;57.27
50368;BME280;36281;34.132;-118.018;2023-02-01T11:13:11;100469.47;;;4.65;56.75
50368;BME280;36281;34.132;-118.018;2023-02-01T11:15:44;100471.09;;;4.66;57.34
50368;BME280;36281;34.132;-118.018;2023-02-01T11:18:17;100477.66;;;4.62;57.07
50368;BME280;36281;34.132;-118.018;2023-02-01T11:20:46;100477.66;;;4.62;56.99
50368;BME280;36281;34.132;-118.018;2023-02-01T11:23:19;100479.44;;;4.62;58.09
50368;BME280;36281;34.132;-118.018;2023-02-01T11:25:49;100477.81;;;4.61;57.35
50368;BME280;36281;34.132;-118.018;2023-02-01T11:28:19;100488.78;;;4.56;57.25
50368;BME280;36281;34.132;-118.018;2023-02-01T11:30:51;100485.97;;;4.50;57.38
50368;BME280;36281;34.132;-118.018;2023-02-01T11:33:23;100481.72;;;4.49;57.75
50368;BME280;36281;34.132;-118.018;2023-02-01T11:35:55;100474.47;;;4.43;58.28
50368;BME280;36281;34.132;-118.018;2023-02-01T11:38:26;100476.22;;;4.34;58.70
50368;BME280;36281;34.132;-118.018;2023-02-01T11:40:55;100477.88;;;4.35;58.89
50368;BME280;36281;34.132;-118.018;2023-02-01T11:43:24;100476.53;;;4.31;58.28
50368;BME280;36281;34.132;-118.018;2023-02-01T11:45:58;100474.59;;;4.33;59.15
50368;BME280;36281;34.132;-118.018;2023-02-01T11:48:26;100475.53;;;4.32;58.51
50368;BME280;36281;34.132;-118.018;2023-02-01T11:51:08;100475.53;;;4.32;58.41
50368;BME280;36281;34.132;-118.018;2023-02-01T11:53:51;100471.13;;;4.32;58.76
50368;BME280;36281;34.132;-118.018;2023-02-01T11:56:25;100468.66;;;4.31;58.21
50368;BME280;36281;34.132;-118.018;2023-02-01T11:59:02;100457.19;;;4.32;58.40
50368;BME280;36281;34.132;-118.018;2023-02-01T12:01:41;100464.69;;;4.27;58.26
50368;BME280;36281;34.132;-118.018;2023-02-01T12:04:17;100465.84;;;4.24;59.08
50368;BME280;36281;34.132;-118.018;2023-02-01T12:06:51;100459.78;;;4.24;58.71
50368;BME280;36281;34.132;-118.018;2023-02-01T12:09:25;100459.09;;;4.22;58.19
50368;BME280;36281;34.132;-118.018;2023-02-01T12:11:58;100458.44;;;4.20;58.55
50368;BME280;36281;34.132;-118.018;2023-02-01T12:14:35;100469.91;;;4.19;58.33
50368;BME280;36281;34.132;-118.018;2023-02-01T12:17:18;100458.75;;;4.17;58.90
50368;BME280;36281;34.132;-118.018;2023-02-01T12:19:58;100469.69;;;4.12;58.36
50368;BME280;36281;34.132;-118.018;2023-02-01T12:22:32;100458.03;;;4.06;58.96
50368;BME280;36281;34.132;-118.018;2023-02-01T12:25:11;100465.06;;;4.06;58.63
50368;BME280;36281;34.132;-118.018;2023-02-01T12:30:36;100461.13;;;4.02;59.53
50368;BME280;36281;34.132;-118.018;2023-02-01T12:33:10;100455.38;;;3.98;59.01
50368;BME280;36281;34.132;-118.018;2023-02-01T12:35:47;100457.31;;;3.96;59.15
50368;BME280;36281;34.132;-118.018;2023-02-01T12:41:02;100464.34;;;3.96;58.91
50368;BME280;36281;34.132;-118.018;2023-02-01T12:43:36;100463.72;;;3.94;58.99
50368;BME280;36281;34.132;-118.018;2023-02-01T12:46:07;100462.41;;;3.98;58.53
50368;BME280;36281;34.132;-118.018;2023-02-01T12:48:40;100475.50;;;3.98;58.08
50368;BME280;36281;34.132;-118.018;2023-02-01T12:51:12;100472.75;;;3.99;58.35
50368;BME280;36281;34.132;-118.018;2023-02-01T12:53:44;100460.97;;;4.03;58.70
50368;BME280;36281;34.132;-118.018;2023-02-01T12:56:15;100467.88;;;4.04;57.77
50368;BME280;36281;34.132;-118.018;2023-02-01T12:58:45;100472.78;;;4.07;57.19
50368;BME280;36281;34.132;-118.018;2023-02-01T13:01:16;100463.78;;;4.10;57.02